Stella Polaris — PEBD — position and weather

sailwx.info

Track history (hours):
 
Tides and Currents Weather Stations Pressure Air Temp Water Temp Dewpoint Dewpoint Depression Visibility Wind Speed Wind Dir Waves Ship Positions

Stella Polaris

Last reported at 2015-Aug-04 23:08 UTC. Time now 2015-Aug-05 04:20 UTC.
Position N 53°33' E 003°36'.

Length 117 m; draft 7.8 m.

Type: Ship (hazmat cat A). MMSI: 245911000.

Date/timePositionNaut miles runAvg speedWind from/ knotsBaromVisibWave heightAir tempDewpointWater temp
2015-Aug-04 23:08N 53°33' E 003°36'1013.2
2015-Aug-04 22:22N 53°43' E 003°41'28112.9
2015-Aug-04 00:33N 57°25' E 008°45'5413.4
2015-Aug-03 20:33N 57°48' E 010°16'1313.2
2015-Aug-03 19:34N 57°50' E 010°40'1313.4
2015-Aug-03 18:33N 57°41' E 010°59'1413.7
2015-Aug-03 17:33N 57°32' E 011°18'1413.5
2015-Aug-03 16:33N 57°20' E 011°31'1413.8
2015-Aug-03 15:33N 57°07' E 011°40'1413.7
2015-Aug-03 14:32N 56°54' E 011°48'1212.5
2015-Aug-03 13:33N 56°42' E 011°50'1413.8
2015-Aug-03 12:33N 56°30' E 011°38'7612.6
2015-Aug-03 06:32N 55°17' E 011°04'1413.8
2015-Aug-03 05:32N 55°03' E 011°02'1313.3
2015-Aug-03 04:33N 54°51' E 010°53'1212.4
2015-Aug-03 03:33N 54°40' E 011°00'1414.0
2015-Aug-03 02:34N 54°33' E 011°21'1414.1
2015-Aug-03 01:33N 54°27' E 011°44'1413.5
2015-Aug-03 00:33N 54°27' E 012°07'4012.8
2015-Aug-02 21:24N 54°51' E 013°02'1213.6
2015-Aug-02 20:33N 54°55' E 013°21'1413.6
2015-Aug-02 19:33N 54°60' E 013°44'1313.4
2015-Aug-02 18:33N 55°05' E 014°05'1413.6
2015-Aug-02 17:33N 55°15' E 014°21'1413.7
2015-Aug-02 16:33N 55°26' E 014°36'1413.7
2015-Aug-02 15:33N 55°33' E 014°57'1413.8
2015-Aug-02 14:33N 55°40' E 015°18'1414.1
2015-Aug-02 13:33N 55°47' E 015°39'1414.0
2015-Aug-02 12:33N 55°54' E 016°01'1413.7
2015-Aug-02 11:33N 56°01' E 016°22'1313.6
2015-Aug-02 10:33N 56°08' E 016°43'1413.7
2015-Aug-02 09:33N 56°16' E 017°02'10613.2
2015-Aug-02 01:32N 57°30' E 019°20'18112.8
2015-Aug-01 11:22N 59°38' E 023°26'1113.2
2015-Aug-01 10:31N 59°41' E 023°48'7712.9
2015-Aug-01 04:33N 60°06' E 026°13'1212.0
2015-Aug-01 03:33N 60°16' E 026°27'1312.7
2015-Aug-01 02:34N 60°23' E 026°48'4 4.0
2015-Aug-01 01:27N 60°26' E 026°55'0 0.0
2015-Aug-01 00:33N 60°26' E 026°55'0 0.0
2015-Jul-31 23:33N 60°26' E 026°55'0 0.0
2015-Jul-31 22:30N 60°26' E 026°55'0 0.0
2015-Jul-31 21:30N 60°26' E 026°55'0 0.0
2015-Jul-31 20:26N 60°26' E 026°55'0 0.0
2015-Jul-31 19:17N 60°26' E 026°55'0 0.0
2015-Jul-31 18:23N 60°26' E 026°55'0 0.0
2015-Jul-31 11:29N 60°26' E 026°55'0 0.0
2015-Jul-31 10:20N 60°26' E 026°55'0 0.0
2015-Jul-31 08:23N 60°26' E 026°55'0 0.0
2015-Jul-31 07:32N 60°26' E 026°55'0 0.0
2015-Jul-31 06:29N 60°26' E 026°55'0 0.0
2015-Jul-31 04:05N 60°26' E 026°55'0 0.0
2015-Jul-31 03:32N 60°26' E 026°55'0 0.0
2015-Jul-31 02:29N 60°26' E 026°55'0 0.0
2015-Jul-31 01:17N 60°26' E 026°55'0 0.0
2015-Jul-31 00:32N 60°26' E 026°55'0 0.0
2015-Jul-30 23:29N 60°26' E 026°55'0 0.0
2015-Jul-30 22:29N 60°26' E 026°55'0 0.0
2015-Jul-30 21:29N 60°26' E 026°55'0 0.0
2015-Jul-30 20:23N 60°26' E 026°55'0 0.0
2015-Jul-30 19:29N 60°26' E 026°55'0 0.0
2015-Jul-30 18:29N 60°26' E 026°55'2 2.1
2015-Jul-30 17:34N 60°24' E 026°53'1414.3
2015-Jul-30 16:34N 60°16' E 026°29'  
2015-Jul-27 23:14N 57°21' E 017°43'1014.2
2015-Jul-27 22:31N 57°12' E 017°36'1313.9
2015-Jul-27 21:34N 56°60' E 017°27'1413.9
2015-Jul-27 20:33N 56°47' E 017°18'1414.0
2015-Jul-27 19:33N 56°33' E 017°09'7213.2
2015-Jul-27 14:06N 55°42' E 015°38'1114.2
2015-Jul-27 13:20N 55°37' E 015°21'1114.3
2015-Jul-27 12:33N 55°31' E 015°04'1414.3
2015-Jul-27 11:33N 55°24' E 014°42'1414.0
2015-Jul-27 10:33N 55°14' E 014°25'1313.0
2015-Jul-27 09:33N 55°10' E 014°03'2914.3
2015-Jul-27 07:32N 55°13' E 013°12'1414.2
2015-Jul-27 06:33N 55°15' E 012°49'1010.2
2015-Jul-27 05:33N 55°24' E 012°39'1312.7
2015-Jul-27 04:33N 55°35' E 012°51'1110.6
2015-Jul-27 03:33N 55°46' E 012°50'1212.4
2015-Jul-27 02:33N 55°57' E 012°42'1212.5
2015-Jul-27 01:33N 56°08' E 012°29'1313.0
2015-Jul-27 00:33N 56°15' E 012°10'1712.2
2015-Jul-26 23:11N 56°30' E 011°58'812.9
2015-Jul-26 22:33N 56°38' E 011°55'1312.9
2015-Jul-26 21:33N 56°51' E 011°48'1313.1
2015-Jul-26 20:33N 57°03' E 011°39'1413.9
2015-Jul-26 19:33N 57°16' E 011°31'1414.0
2015-Jul-26 18:33N 57°29' E 011°21'1413.8
2015-Jul-26 17:34N 57°38' E 011°02'1513.3
2015-Jul-26 16:27N 57°48' E 010°41'  
Track history (hours):
 
Tides and Currents Weather Stations Pressure Air Temp Water Temp Dewpoint Dewpoint Depression Visibility Wind Speed Wind Dir Waves Ship Positions

Stella Polaris

Last reported at 2015-Aug-04 23:08 UTC. Time now 2015-Aug-05 04:21 UTC.
Position N 53°33' E 003°36'.

Length 117 m; draft 7.8 m.

Type: Ship (hazmat cat A). MMSI: 245911000.

Date/timePositionNaut miles runAvg speedWind from/ knotsBaromVisibWave heightAir tempDewpointWater temp
2015-Aug-04 23:08N 53°33' E 003°36'1013.2
2015-Aug-04 22:22N 53°43' E 003°41'28112.9
2015-Aug-04 00:33N 57°25' E 008°45'5413.4
2015-Aug-03 20:33N 57°48' E 010°16'1313.2
2015-Aug-03 19:34N 57°50' E 010°40'1313.4
2015-Aug-03 18:33N 57°41' E 010°59'1413.7
2015-Aug-03 17:33N 57°32' E 011°18'1413.5
2015-Aug-03 16:33N 57°20' E 011°31'1413.8
2015-Aug-03 15:33N 57°07' E 011°40'1413.7
2015-Aug-03 14:32N 56°54' E 011°48'1212.5
2015-Aug-03 13:33N 56°42' E 011°50'1413.8
2015-Aug-03 12:33N 56°30' E 011°38'7612.6
2015-Aug-03 06:32N 55°17' E 011°04'1413.8
2015-Aug-03 05:32N 55°03' E 011°02'1313.3
2015-Aug-03 04:33N 54°51' E 010°53'1212.4
2015-Aug-03 03:33N 54°40' E 011°00'1414.0
2015-Aug-03 02:34N 54°33' E 011°21'1414.1
2015-Aug-03 01:33N 54°27' E 011°44'1413.5
2015-Aug-03 00:33N 54°27' E 012°07'4012.8
2015-Aug-02 21:24N 54°51' E 013°02'1213.6
2015-Aug-02 20:33N 54°55' E 013°21'1413.6
2015-Aug-02 19:33N 54°60' E 013°44'1313.4
2015-Aug-02 18:33N 55°05' E 014°05'1413.6
2015-Aug-02 17:33N 55°15' E 014°21'1413.7
2015-Aug-02 16:33N 55°26' E 014°36'1413.7
2015-Aug-02 15:33N 55°33' E 014°57'1413.8
2015-Aug-02 14:33N 55°40' E 015°18'1414.1
2015-Aug-02 13:33N 55°47' E 015°39'1414.0
2015-Aug-02 12:33N 55°54' E 016°01'1413.7
2015-Aug-02 11:33N 56°01' E 016°22'1313.6
2015-Aug-02 10:33N 56°08' E 016°43'1413.7
2015-Aug-02 09:33N 56°16' E 017°02'10613.2
2015-Aug-02 01:32N 57°30' E 019°20'18112.8
2015-Aug-01 11:22N 59°38' E 023°26'1113.2
2015-Aug-01 10:31N 59°41' E 023°48'7712.9
2015-Aug-01 04:33N 60°06' E 026°13'1212.0
2015-Aug-01 03:33N 60°16' E 026°27'1312.7
2015-Aug-01 02:34N 60°23' E 026°48'4 4.0
2015-Aug-01 01:27N 60°26' E 026°55'0 0.0
2015-Aug-01 00:33N 60°26' E 026°55'0 0.0
2015-Jul-31 23:33N 60°26' E 026°55'0 0.0
2015-Jul-31 22:30N 60°26' E 026°55'0 0.0
2015-Jul-31 21:30N 60°26' E 026°55'0 0.0
2015-Jul-31 20:26N 60°26' E 026°55'0 0.0
2015-Jul-31 19:17N 60°26' E 026°55'0 0.0
2015-Jul-31 18:23N 60°26' E 026°55'0 0.0
2015-Jul-31 11:29N 60°26' E 026°55'0 0.0
2015-Jul-31 10:20N 60°26' E 026°55'0 0.0
2015-Jul-31 08:23N 60°26' E 026°55'0 0.0
2015-Jul-31 07:32N 60°26' E 026°55'0 0.0
2015-Jul-31 06:29N 60°26' E 026°55'0 0.0
2015-Jul-31 04:05N 60°26' E 026°55'0 0.0
2015-Jul-31 03:32N 60°26' E 026°55'0 0.0
2015-Jul-31 02:29N 60°26' E 026°55'0 0.0
2015-Jul-31 01:17N 60°26' E 026°55'0 0.0
2015-Jul-31 00:32N 60°26' E 026°55'0 0.0
2015-Jul-30 23:29N 60°26' E 026°55'0 0.0
2015-Jul-30 22:29N 60°26' E 026°55'0 0.0
2015-Jul-30 21:29N 60°26' E 026°55'0 0.0
2015-Jul-30 20:23N 60°26' E 026°55'0 0.0
2015-Jul-30 19:29N 60°26' E 026°55'0 0.0
2015-Jul-30 18:29N 60°26' E 026°55'2 2.1
2015-Jul-30 17:34N 60°24' E 026°53'1414.3
2015-Jul-30 16:34N 60°16' E 026°29'  
2015-Jul-27 23:14N 57°21' E 017°43'1014.2
2015-Jul-27 22:31N 57°12' E 017°36'1313.9
2015-Jul-27 21:34N 56°60' E 017°27'1413.9
2015-Jul-27 20:33N 56°47' E 017°18'1414.0
2015-Jul-27 19:33N 56°33' E 017°09'7213.2
2015-Jul-27 14:06N 55°42' E 015°38'1114.2
2015-Jul-27 13:20N 55°37' E 015°21'1114.3
2015-Jul-27 12:33N 55°31' E 015°04'1414.3
2015-Jul-27 11:33N 55°24' E 014°42'1414.0
2015-Jul-27 10:33N 55°14' E 014°25'1313.0
2015-Jul-27 09:33N 55°10' E 014°03'2914.3
2015-Jul-27 07:32N 55°13' E 013°12'1414.2
2015-Jul-27 06:33N 55°15' E 012°49'1010.2
2015-Jul-27 05:33N 55°24' E 012°39'1312.7
2015-Jul-27 04:33N 55°35' E 012°51'1110.6
2015-Jul-27 03:33N 55°46' E 012°50'1212.4
2015-Jul-27 02:33N 55°57' E 012°42'1212.5
2015-Jul-27 01:33N 56°08' E 012°29'1313.0
2015-Jul-27 00:33N 56°15' E 012°10'1712.2
2015-Jul-26 23:11N 56°30' E 011°58'812.9
2015-Jul-26 22:33N 56°38' E 011°55'1312.9
2015-Jul-26 21:33N 56°51' E 011°48'1313.1
2015-Jul-26 20:33N 57°03' E 011°39'1413.9
2015-Jul-26 19:33N 57°16' E 011°31'1414.0
2015-Jul-26 18:33N 57°29' E 011°21'1413.8
2015-Jul-26 17:34N 57°38' E 011°02'1513.3
2015-Jul-26 16:27N 57°48' E 010°41'  

Dump ship's entire track history